Time;durP1;ratioP1;P1;durP2;ratioP2;P2;SDS_P1;SDS_P2;PMS_P1;PMS_P2;Temp;Humidity;BMP_temperature;BMP_pressure;BME280_temperature;BME280_humidity;BME280_pressure;Samples;Min_cycle;Max_cycle;Signal;HPM_P1;HPM_P2
2022/07/13 00:02:08;;;;;;;;;;;;;;;10.77;100.00;91416.00;5027051;28;19924;-68
2022/07/13 00:04:33;;;;;;;;;;;;;;;10.78;100.00;91414.13;5011824;28;19917;-68
2022/07/13 00:06:58;;;;;;;;;;;;;;;10.76;100.00;91411.78;5011754;28;19925;-68
2022/07/13 00:09:24;;;;;;;;;;;;;;;10.79;100.00;91410.38;5011819;28;19920;-67
2022/07/13 00:11:49;;;;;;;;;;;;;;;10.77;100.00;91409.91;5011656;28;19968;-68
2022/07/13 00:14:14;;;;;;;;;;;;;;;10.76;100.00;91409.13;5011813;28;19921;-67
2022/07/13 00:16:40;;;;;;;;;;;;;;;10.75;100.00;91402.22;5011673;28;20350;-67
2022/07/13 00:19:05;;;;;;;;;;;;;;;10.68;100.00;91398.38;5011597;28;19924;-68
2022/07/13 00:21:30;;;;;;;;;;;;;;;10.64;100.00;91410.69;5011756;28;19914;-68
2022/07/13 00:23:55;;;;;;;;;;;;;;;10.62;100.00;91403.00;5011688;28;19935;-67
2022/07/13 00:26:21;;;;;;;;;;;;;;;10.60;100.00;91410.50;5011648;28;19921;-68
2022/07/13 00:28:46;;;;;;;;;;;;;;;10.59;100.00;91403.59;5011741;28;20280;-68
2022/07/13 00:31:11;;;;;;;;;;;;;;;10.59;100.00;91406.28;5011778;28;19913;-68
2022/07/13 00:33:37;;;;;;;;;;;;;;;10.61;100.00;91404.09;5011845;28;20395;-67
2022/07/13 00:36:02;;;;;;;;;;;;;;;10.59;100.00;91400.16;5011541;28;20372;-67
2022/07/13 00:38:28;;;;;;;;;;;;;;;10.57;100.00;91402.31;5013171;28;19941;-67
2022/07/13 00:40:53;;;;;;;;;;;;;;;10.54;100.00;91400.25;5015366;28;20401;-67
2022/07/13 00:43:19;;;;;;;;;;;;;;;10.53;100.00;91398.66;5015351;28;19917;-66
2022/07/13 00:45:44;;;;;;;;;;;;;;;10.52;100.00;91395.22;5015227;28;19917;-67
2022/07/13 00:48:10;;;;;;;;;;;;;;;10.53;100.00;91398.66;5015605;28;19918;-66
2022/07/13 00:50:35;;;;;;;;;;;;;;;10.45;100.00;91403.59;5015228;28;19971;-66
2022/07/13 00:53:01;;;;;;;;;;;;;;;10.46;100.00;91399.06;5015157;28;19920;-67
2022/07/13 00:55:27;;;;;;;;;;;;;;;10.38;100.00;91397.09;5015054;28;19913;-67
2022/07/13 00:57:53;;;;;;;;;;;;;;;10.32;100.00;91396.41;5015053;28;19913;-67
2022/07/13 01:00:19;;;;;;;;;;;;;;;10.16;100.00;91393.22;5015228;28;19940;-67
2022/07/13 01:02:46;;;;;;;;;;;;;;;10.21;100.00;91389.69;5014987;28;20396;-67
2022/07/13 01:05:12;;;;;;;;;;;;;;;10.16;100.00;91385.25;5015202;28;19972;-66
2022/07/13 01:07:37;;;;;;;;;;;;;;;10.17;100.00;91388.69;5014747;28;20517;-67
2022/07/13 01:10:05;;;;;;;;;;;;;;;10.23;100.00;91387.53;5014754;28;19999;-67
2022/07/13 01:12:32;;;;;;;;;;;;;;;10.21;100.00;91381.72;5014794;28;19913;-67
2022/07/13 01:14:57;;;;;;;;;;;;;;;10.12;100.00;91381.59;4997152;28;19921;-67
2022/07/13 01:17:23;;;;;;;;;;;;;;;10.13;100.00;91374.41;5014484;28;19913;-67
2022/07/13 01:19:49;;;;;;;;;;;;;;;10.10;100.00;91377.66;5014466;28;19921;-67
2022/07/13 01:22:19;;;;;;;;;;;;;;;10.08;100.00;91383.25;5014623;28;19921;-66
2022/07/13 01:24:45;;;;;;;;;;;;;;;10.10;100.00;91382.97;5014120;28;19920;-67
2022/07/13 01:27:11;;;;;;;;;;;;;;;10.17;100.00;91378.03;5014441;28;19917;-68
2022/07/13 01:29:36;;;;;;;;;;;;;;;10.13;100.00;91377.84;5014481;28;20001;-68
2022/07/13 01:32:01;;;;;;;;;;;;;;;10.06;100.00;91374.00;5014307;28;19913;-68
2022/07/13 01:34:27;;;;;;;;;;;;;;;10.05;100.00;91381.19;5014422;28;19921;-68
2022/07/13 01:36:52;;;;;;;;;;;;;;;10.02;100.00;91373.00;5014222;28;19956;-67
2022/07/13 01:39:18;;;;;;;;;;;;;;;10.00;100.00;91375.97;5014285;28;19914;-67
2022/07/13 01:41:43;;;;;;;;;;;;;;;9.89;100.00;91382.53;5014232;28;19914;-67
2022/07/13 01:44:08;;;;;;;;;;;;;;;9.80;100.00;91387.75;5014255;28;20000;-67
2022/07/13 01:46:34;;;;;;;;;;;;;;;9.68;100.00;91384.75;5014033;28;19913;-67
2022/07/13 01:48:59;;;;;;;;;;;;;;;9.55;100.00;91386.28;5013702;28;20086;-67
2022/07/13 01:51:24;;;;;;;;;;;;;;;9.47;100.00;91381.66;5013626;28;19971;-67
2022/07/13 01:53:50;;;;;;;;;;;;;;;9.37;100.00;91381.81;5013961;28;20000;-67
2022/07/13 01:56:15;;;;;;;;;;;;;;;9.22;100.00;91379.38;4996258;28;19913;-68
2022/07/13 01:58:41;;;;;;;;;;;;;;;9.11;100.00;91381.41;5013891;28;20368;-68
2022/07/13 02:01:06;;;;;;;;;;;;;;;9.10;100.00;91379.81;5013815;28;19920;-68
2022/07/13 02:03:32;;;;;;;;;;;;;;;9.18;100.00;91378.41;5013786;28;19913;-67
2022/07/13 02:05:58;;;;;;;;;;;;;;;9.29;100.00;91385.91;5013682;28;20442;-68
2022/07/13 02:08:23;;;;;;;;;;;;;;;9.33;100.00;91375.50;5013733;28;19913;-68
2022/07/13 02:10:49;;;;;;;;;;;;;;;9.42;100.00;91378.28;5013625;28;19925;-68
2022/07/13 02:13:14;;;;;;;;;;;;;;;9.48;100.00;91382.44;5013691;28;19921;-68
2022/07/13 02:15:40;;;;;;;;;;;;;;;9.57;100.00;91386.00;5013497;28;20428;-68
2022/07/13 02:18:06;;;;;;;;;;;;;;;9.62;100.00;91383.25;5015671;28;19918;-68
2022/07/13 02:20:31;;;;;;;;;;;;;;;9.57;100.00;91386.78;5015489;28;20008;-68
2022/07/13 02:22:57;;;;;;;;;;;;;;;9.60;100.00;91388.06;5033250;28;19913;-67
2022/07/13 02:25:22;;;;;;;;;;;;;;;9.62;100.00;91388.56;5033144;28;19980;-67
2022/07/13 02:27:47;;;;;;;;;;;;;;;9.62;100.00;91388.56;5033085;28;19913;-67
2022/07/13 02:30:14;;;;;;;;;;;;;;;9.58;100.00;91384.91;5033053;28;19912;-67
2022/07/13 02:32:40;;;;;;;;;;;;;;;9.55;100.00;91388.16;5032933;28;19917;-67
2022/07/13 02:35:06;;;;;;;;;;;;;;;9.49;100.00;91384.03;5033024;28;19948;-67
2022/07/13 02:37:31;;;;;;;;;;;;;;;9.46;100.00;91388.03;5032900;28;19963;-67
2022/07/13 02:39:56;;;;;;;;;;;;;;;9.42;100.00;91380.94;5032904;28;20367;-67
2022/07/13 02:42:25;;;;;;;;;;;;;;;9.39;100.00;91381.53;5032865;28;19913;-67
2022/07/13 02:44:51;;;;;;;;;;;;;;;9.33;100.00;91374.72;5032857;28;19920;-66
2022/07/13 02:47:16;;;;;;;;;;;;;;;9.34;100.00;91378.94;5032670;28;20357;-66
2022/07/13 02:49:42;;;;;;;;;;;;;;;9.28;100.00;91379.00;5032724;28;19967;-67
2022/07/13 02:52:07;;;;;;;;;;;;;;;9.27;100.00;91390.72;5032620;28;19913;-67
2022/07/13 02:54:32;;;;;;;;;;;;;;;9.25;100.00;91386.78;5032653;28;19997;-67
2022/07/13 02:56:58;;;;;;;;;;;;;;;9.20;100.00;91384.19;5032511;28;19919;-67
2022/07/13 02:59:23;;;;;;;;;;;;;;;9.18;100.00;91384.50;5032565;28;19913;-67
2022/07/13 03:01:48;;;;;;;;;;;;;;;9.17;100.00;91379.47;5032342;28;19917;-68
2022/07/13 03:04:14;;;;;;;;;;;;;;;9.22;100.00;91382.03;5032489;28;20488;-67
2022/07/13 03:06:39;;;;;;;;;;;;;;;9.22;100.00;91374.88;5014443;28;19916;-68
2022/07/13 03:09:04;;;;;;;;;;;;;;;9.15;100.00;91374.44;5032371;28;20008;-67
2022/07/13 03:11:30;;;;;;;;;;;;;;;9.17;100.00;91376.81;5032237;28;20008;-66
2022/07/13 03:13:55;;;;;;;;;;;;;;;9.14;100.00;91380.81;5032456;28;19917;-66
2022/07/13 03:16:20;;;;;;;;;;;;;;;9.11;100.00;91380.59;5032131;28;19968;-66
2022/07/13 03:18:46;;;;;;;;;;;;;;;9.09;100.00;91382.75;5032036;28;19924;-66
2022/07/13 03:21:12;;;;;;;;;;;;;;;9.08;100.00;91375.88;5032168;28;20375;-66
2022/07/13 03:23:37;;;;;;;;;;;;;;;9.09;100.00;91380.91;5032091;28;19913;-66
2022/07/13 03:26:03;;;;;;;;;;;;;;;9.12;100.00;91374.22;5031969;28;19913;-66
2022/07/13 03:28:28;;;;;;;;;;;;;;;9.13;100.00;91378.44;5032106;28;20303;-67
2022/07/13 03:30:53;;;;;;;;;;;;;;;9.13;100.00;91381.09;5031906;28;19920;-66
2022/07/13 03:33:19;;;;;;;;;;;;;;;9.17;100.00;91379.47;5031914;28;20391;-66
2022/07/13 03:35:44;;;;;;;;;;;;;;;9.22;100.00;91385.47;5031758;28;20027;-66
2022/07/13 03:38:09;;;;;;;;;;;;;;;9.26;100.00;91383.03;5031936;28;19917;-67
2022/07/13 03:40:35;;;;;;;;;;;;;;;9.26;100.00;91386.47;5031870;28;20284;-67
2022/07/13 03:43:00;;;;;;;;;;;;;;;9.33;100.00;91380.81;5031871;28;19913;-67
2022/07/13 03:45:25;;;;;;;;;;;;;;;9.40;100.00;91380.44;5031751;28;19912;-67
2022/07/13 03:47:51;;;;;;;;;;;;;;;9.42;100.00;91376.41;5031762;28;19963;-67
2022/07/13 03:50:16;;;;;;;;;;;;;;;9.53;100.00;91377.81;5031770;28;20430;-67
2022/07/13 03:52:41;;;;;;;;;;;;;;;9.59;100.00;91381.19;5013900;28;19917;-67
2022/07/13 03:55:08;;;;;;;;;;;;;;;9.64;100.00;91380.31;5031720;28;20009;-67
2022/07/13 03:57:34;;;;;;;;;;;;;;;9.67;100.00;91375.22;5031650;28;20003;-67
2022/07/13 03:59:59;;;;;;;;;;;;;;;9.77;100.00;91376.91;5031601;28;20027;-67
2022/07/13 04:02:25;;;;;;;;;;;;;;;9.85;100.00;91382.34;5031639;28;19921;-67
2022/07/13 04:04:50;;;;;;;;;;;;;;;9.93;100.00;91382.72;5031599;28;19936;-68
2022/07/13 04:07:16;;;;;;;;;;;;;;;9.97;100.00;91378.44;5031480;28;20004;-68
2022/07/13 04:09:41;;;;;;;;;;;;;;;10.05;100.00;91375.06;5031517;28;19913;-67
2022/07/13 04:12:06;;;;;;;;;;;;;;;10.11;100.00;91384.56;5031478;28;19913;-67
2022/07/13 04:14:32;;;;;;;;;;;;;;;10.20;100.00;91372.13;5035057;28;20310;-67
2022/07/13 04:16:57;;;;;;;;;;;;;;;10.31;100.00;91373.56;5035538;28;19964;-68
2022/07/13 04:19:22;;;;;;;;;;;;;;;10.36;100.00;91370.78;5035371;28;19924;-66
2022/07/13 04:21:48;;;;;;;;;;;;;;;10.46;100.00;91380.44;5035416;28;19920;-67
2022/07/13 04:24:13;;;;;;;;;;;;;;;10.57;100.00;91368.50;5035407;28;19980;-67
2022/07/13 04:26:39;;;;;;;;;;;;;;;10.62;100.00;91381.72;5035283;28;19917;-67
2022/07/13 04:29:04;;;;;;;;;;;;;;;10.67;100.00;91380.81;5035355;28;20011;-67
2022/07/13 04:31:29;;;;;;;;;;;;;;;10.86;100.00;91383.34;5035214;28;19921;-67
2022/07/13 04:33:55;;;;;;;;;;;;;;;10.98;100.00;91376.44;5035455;28;19917;-67
2022/07/13 04:36:20;;;;;;;;;;;;;;;11.10;100.00;91379.38;5035105;28;20375;-67
2022/07/13 04:38:45;;;;;;;;;;;;;;;11.25;100.00;91380.13;5035236;28;19920;-67
2022/07/13 04:41:11;;;;;;;;;;;;;;;11.40;100.00;91383.22;5035139;28;20302;-67
2022/07/13 04:43:36;;;;;;;;;;;;;;;11.54;100.00;91375.19;5035128;28;19913;-67
2022/07/13 04:46:02;;;;;;;;;;;;;;;11.71;100.00;91374.50;5034888;28;19916;-67
2022/07/13 04:48:28;;;;;;;;;;;;;;;11.82;100.00;91378.50;5035318;28;19913;-67
2022/07/13 04:50:53;;;;;;;;;;;;;;;11.93;100.00;91368.38;5034905;28;20367;-68
2022/07/13 04:53:18;;;;;;;;;;;;;;;12.07;100.00;91377.09;5034939;28;19982;-68
2022/07/13 04:55:44;;;;;;;;;;;;;;;12.24;100.00;91371.06;5034737;28;19913;-68
2022/07/13 04:58:10;;;;;;;;;;;;;;;12.36;100.00;91381.94;5034840;28;20416;-68
2022/07/13 05:00:35;;;;;;;;;;;;;;;12.49;100.00;91383.72;5035025;28;19917;-68
2022/07/13 05:03:01;;;;;;;;;;;;;;;12.64;100.00;91384.41;5034743;28;19913;-68
2022/07/13 05:05:30;;;;;;;;;;;;;;;12.55;100.00;91387.03;5034650;28;19913;-68
2022/07/13 05:07:56;;;;;;;;;;;;;;;12.48;100.00;91390.16;5034831;28;19919;-68
2022/07/13 05:10:21;;;;;;;;;;;;;;;12.46;100.00;91392.31;5034533;28;19913;-68
2022/07/13 05:12:46;;;;;;;;;;;;;;;12.57;100.00;91384.84;5034585;28;19920;-68
2022/07/13 05:15:12;;;;;;;;;;;;;;;12.69;100.00;91384.25;5034643;28;20375;-68
2022/07/13 05:17:37;;;;;;;;;;;;;;;12.84;100.00;91381.16;5034408;28;20375;-68
2022/07/13 05:20:03;;;;;;;;;;;;;;;13.07;100.00;91387.94;5034186;28;19917;-68
2022/07/13 05:22:29;;;;;;;;;;;;;;;13.15;100.00;91386.41;5034412;28;19913;-68
2022/07/13 05:24:55;;;;;;;;;;;;;;;13.29;100.00;91389.75;5032844;28;19976;-68
2022/07/13 05:27:21;;;;;;;;;;;;;;;13.47;100.00;91385.19;5034417;28;19920;-68
2022/07/13 05:29:46;;;;;;;;;;;;;;;13.65;100.00;91386.75;5034178;28;19913;-68
2022/07/13 05:32:11;;;;;;;;;;;;;;;13.89;100.00;91383.59;5033908;28;20307;-69
2022/07/13 05:34:37;;;;;;;;;;;;;;;14.12;100.00;91386.06;5033961;28;19913;-69
2022/07/13 05:37:02;;;;;;;;;;;;;;;14.44;100.00;91388.22;5033986;28;19913;-68
2022/07/13 05:39:27;;;;;;;;;;;;;;;14.73;96.69;91384.00;5034038;28;20002;-68
2022/07/13 05:41:53;;;;;;;;;;;;;;;14.97;93.97;91382.28;5034000;28;19971;-68
2022/07/13 05:44:18;;;;;;;;;;;;;;;15.43;94.51;91377.13;5034004;28;19920;-67
2022/07/13 05:46:43;;;;;;;;;;;;;;;18.24;78.31;91380.84;5033788;28;19960;-67
2022/07/13 05:49:09;;;;;;;;;;;;;;;22.07;56.00;91386.28;5033896;28;19917;-67
2022/07/13 05:51:34;;;;;;;;;;;;;;;25.19;47.61;91389.78;5033760;28;19913;-67
2022/07/13 05:53:59;;;;;;;;;;;;;;;27.53;43.30;91390.31;5033731;28;20048;-67
2022/07/13 05:56:25;;;;;;;;;;;;;;;28.71;38.86;91390.00;5033671;28;19917;-67
2022/07/13 05:58:50;;;;;;;;;;;;;;;29.02;36.53;91388.06;5033613;28;19917;-67
2022/07/13 06:01:15;;;;;;;;;;;;;;;30.77;33.45;91390.75;5033883;28;19956;-68
2022/07/13 06:03:41;;;;;;;;;;;;;;;28.52;35.13;91390.63;5033528;28;20322;-68
2022/07/13 06:06:06;;;;;;;;;;;;;;;30.60;33.03;91389.88;5033424;28;19967;-68
2022/07/13 06:08:31;;;;;;;;;;;;;;;32.03;31.44;91387.63;5033489;28;20008;-68
2022/07/13 06:10:56;;;;;;;;;;;;;;;32.82;29.52;91381.66;5033380;28;20367;-67
2022/07/13 06:13:22;;;;;;;;;;;;;;;32.36;30.85;91389.19;5033372;28;19945;-67
2022/07/13 06:15:47;;;;;;;;;;;;;;;31.26;30.96;91391.75;5033174;28;19917;-66
2022/07/13 06:18:12;;;;;;;;;;;;;;;32.72;28.87;91382.72;5033133;28;19960;-65
2022/07/13 06:20:38;;;;;;;;;;;;;;;33.70;27.83;91388.56;5033300;28;19913;-65
2022/07/13 06:23:09;;;;;;;;;;;;;;;31.24;30.33;91389.44;5033042;28;19952;-65
2022/07/13 06:25:35;;;;;;;;;;;;;;;30.89;31.34;91398.38;5032951;28;19913;-65
2022/07/13 06:28:00;;;;;;;;;;;;;;;31.82;29.70;91394.44;5032838;28;20314;-65
2022/07/13 06:30:25;;;;;;;;;;;;;;;33.80;27.48;91395.00;5032816;28;19913;-66
2022/07/13 06:32:51;;;;;;;;;;;;;;;35.42;26.01;91396.19;5032856;28;19920;-66
2022/07/13 06:35:16;;;;;;;;;;;;;;;34.62;27.51;91397.88;5032447;28;19913;-66
2022/07/13 06:37:41;;;;;;;;;;;;;;;34.13;28.45;91392.78;5015013;28;19913;-66
2022/07/13 06:40:07;;;;;;;;;;;;;;;33.40;28.28;91387.13;5032703;28;19913;-66
2022/07/13 06:42:32;;;;;;;;;;;;;;;34.17;28.25;91385.91;5032654;28;19913;-67
2022/07/13 06:44:58;;;;;;;;;;;;;;;34.57;27.43;91388.16;5014897;28;19936;-67
2022/07/13 06:47:23;;;;;;;;;;;;;;;35.72;26.20;91391.88;5032521;28;19913;-67
2022/07/13 06:49:48;;;;;;;;;;;;;;;34.46;27.33;91393.28;5032312;28;19935;-67
2022/07/13 06:52:14;;;;;;;;;;;;;;;34.21;28.47;91397.59;5032475;28;19913;-67
2022/07/13 06:54:39;;;;;;;;;;;;;;;33.94;28.09;91391.81;5032617;28;19963;-67
2022/07/13 06:57:05;;;;;;;;;;;;;;;34.48;28.22;91391.59;5032397;28;20012;-67
2022/07/13 06:59:30;;;;;;;;;;;;;;;34.02;28.21;91382.06;5032460;28;19921;-66
2022/07/13 07:01:55;;;;;;;;;;;;;;;35.51;26.55;91392.72;5032260;28;20395;-67
2022/07/13 07:04:21;;;;;;;;;;;;;;;35.51;26.27;91386.41;5032307;28;19967;-67
2022/07/13 07:06:46;;;;;;;;;;;;;;;33.28;28.57;91385.09;5032143;28;20379;-67
2022/07/13 07:09:11;;;;;;;;;;;;;;;30.04;30.67;91382.28;5032245;28;19913;-66
2022/07/13 07:11:37;;;;;;;;;;;;;;;31.41;29.07;91383.97;5032171;28;19917;-67
2022/07/13 07:14:02;;;;;;;;;;;;;;;32.99;28.00;91385.94;5032045;28;20391;-66
2022/07/13 07:16:28;;;;;;;;;;;;;;;32.97;27.80;91382.81;5032127;28;20379;-66
2022/07/13 07:18:53;;;;;;;;;;;;;;;30.98;29.97;91387.59;5031930;28;20003;-66
2022/07/13 07:21:18;;;;;;;;;;;;;;;32.69;29.14;91386.34;5031962;28;20397;-66
2022/07/13 07:23:44;;;;;;;;;;;;;;;32.55;29.56;91390.28;5031900;28;20383;-66
2022/07/13 07:26:09;;;;;;;;;;;;;;;31.40;29.50;91390.66;5031764;28;20405;-66
2022/07/13 07:28:35;;;;;;;;;;;;;;;31.95;30.30;91381.53;5031740;28;19916;-66
2022/07/13 07:31:00;;;;;;;;;;;;;;;33.73;27.75;91386.91;5031713;28;20342;-66
2022/07/13 07:33:26;;;;;;;;;;;;;;;32.11;29.49;91389.00;5031799;28;19968;-66
2022/07/13 07:35:51;;;;;;;;;;;;;;;29.99;30.93;91384.72;5031872;28;19967;-65
2022/07/13 07:38:16;;;;;;;;;;;;;;;31.42;29.84;91394.53;5031755;28;19935;-65
2022/07/13 07:40:41;;;;;;;;;;;;;;;31.68;29.41;91390.00;5031714;28;19917;-66
2022/07/13 07:43:07;;;;;;;;;;;;;;;31.53;30.48;91388.78;5031642;28;20402;-66
2022/07/13 07:45:32;;;;;;;;;;;;;;;33.21;27.54;91385.31;5031456;28;19913;-66
2022/07/13 07:47:57;;;;;;;;;;;;;;;33.16;27.77;91383.88;5030725;28;19913;-66
2022/07/13 07:50:23;;;;;;;;;;;;;;;32.46;29.04;91390.88;5031327;28;19913;-66
2022/07/13 07:52:48;;;;;;;;;;;;;;;31.02;30.67;91388.31;5031152;28;20375;-65
2022/07/13 07:55:13;;;;;;;;;;;;;;;32.42;29.89;91387.44;5031291;28;19963;-66
2022/07/13 07:57:50;;;;;;;;;;;;;;;34.13;27.68;91382.50;5031442;28;19952;-66
2022/07/13 08:00:15;;;;;;;;;;;;;;;34.65;27.02;91378.41;5031411;28;19916;-66
2022/07/13 08:02:41;;;;;;;;;;;;;;;34.69;26.76;91386.56;5031457;28;19920;-66
2022/07/13 08:05:06;;;;;;;;;;;;;;;34.96;25.92;91374.97;5031276;28;20421;-66
2022/07/13 08:07:32;;;;;;;;;;;;;;;33.20;27.56;91383.78;5013620;28;19913;-66
2022/07/13 08:09:57;;;;;;;;;;;;;;;32.61;29.21;91382.22;5031385;28;20401;-66
2022/07/13 08:12:22;;;;;;;;;;;;;;;33.41;27.79;91383.16;5031260;28;19980;-66
2022/07/13 08:14:48;;;;;;;;;;;;;;;32.76;27.70;91386.16;5031158;28;19971;-66
2022/07/13 08:17:13;;;;;;;;;;;;;;;33.39;28.02;91396.63;5031249;28;19913;-66
2022/07/13 08:19:38;;;;;;;;;;;;;;;32.84;28.55;91379.28;5031100;28;19967;-66
2022/07/13 08:22:04;;;;;;;;;;;;;;;29.70;31.50;91382.44;5031215;28;19913;-66
2022/07/13 08:24:29;;;;;;;;;;;;;;;30.30;32.02;91394.38;5031136;28;19925;-66
2022/07/13 08:26:55;;;;;;;;;;;;;;;27.14;34.67;91394.09;5031074;28;19917;-66
2022/07/13 08:29:20;;;;;;;;;;;;;;;25.54;36.78;91390.97;5031194;28;19925;-65
2022/07/13 08:31:45;;;;;;;;;;;;;;;24.23;38.36;91391.38;5030928;28;19917;-66
2022/07/13 08:39:39;;;;;;;;;;;;;;;24.83;40.24;91393.59;5031091;28;19967;-65
2022/07/13 08:42:04;;;;;;;;;;;;;;;25.50;37.76;91387.47;5030999;28;19917;-65
2022/07/13 08:44:30;;;;;;;;;;;;;;;25.35;38.11;91389.41;5031074;28;19971;-65
2022/07/13 08:46:56;;;;;;;;;;;;;;;29.77;32.88;91395.25;5030857;28;19917;-65
2022/07/13 08:49:22;;;;;;;;;;;;;;;30.94;32.75;91392.41;5030969;28;19913;-66
2022/07/13 08:51:48;;;;;;;;;;;;;;;30.07;31.63;91394.38;5031188;28;19916;-65
2022/07/13 08:54:14;;;;;;;;;;;;;;;30.42;31.29;91391.00;5030897;28;20390;-65
2022/07/13 08:56:41;;;;;;;;;;;;;;;31.83;30.51;91401.47;5030851;28;19920;-65
2022/07/13 08:59:06;;;;;;;;;;;;;;;31.93;30.16;91399.69;5032078;28;19913;-65
2022/07/13 09:01:31;;;;;;;;;;;;;;;29.94;33.29;91383.19;5034564;28;19913;-65
2022/07/13 09:03:57;;;;;;;;;;;;;;;28.84;32.10;91380.06;5034509;28;19951;-65
2022/07/13 09:06:41;;;;;;;;;;;;;;;30.04;32.88;91382.28;5034442;28;19917;-65
2022/07/13 09:09:07;;;;;;;;;;;;;;;32.03;29.10;91391.16;5034429;28;20310;-65
2022/07/13 09:11:32;;;;;;;;;;;;;;;29.99;30.26;91388.22;5034360;28;20016;-65
2022/07/13 09:13:58;;;;;;;;;;;;;;;31.21;29.90;91387.53;5034508;28;19920;-66
2022/07/13 09:16:24;;;;;;;;;;;;;;;32.80;28.54;91375.78;5016506;28;19948;-66
2022/07/13 09:18:51;;;;;;;;;;;;;;;32.97;27.98;91385.56;5033164;28;20387;-65
2022/07/13 09:21:18;;;;;;;;;;;;;;;35.42;25.75;91384.34;5034301;28;19967;-65
2022/07/13 09:23:45;;;;;;;;;;;;;;;34.29;25.85;91378.06;5034400;28;20016;-66
2022/07/13 09:26:11;;;;;;;;;;;;;;;30.26;29.47;91381.91;5034103;28;19913;-66
2022/07/13 09:28:43;;;;;;;;;;;;;;;28.23;32.92;91384.66;5034287;28;20379;-65
2022/07/13 09:31:09;;;;;;;;;;;;;;;28.36;34.08;91382.97;5034014;28;19919;-65
2022/07/13 09:33:35;;;;;;;;;;;;;;;29.02;32.20;91373.59;5034087;28;20003;-65
2022/07/13 09:36:08;;;;;;;;;;;;;;;28.13;33.99;91380.06;5033559;28;19924;-66
2022/07/13 09:38:36;;;;;;;;;;;;;;;28.53;32.56;91379.25;5024039;28;19918;-66
2022/07/13 09:41:16;;;;;;;;;;;;;;;28.19;32.40;91362.78;5014180;28;19924;-65
2022/07/13 09:46:48;;;;;;;;;;;;;;;29.64;30.93;91372.34;5014254;28;19929;-65
2022/07/13 09:49:15;;;;;;;;;;;;;;;29.84;31.44;91362.22;5013851;28;19914;-65
2022/07/13 09:51:41;;;;;;;;;;;;;;;29.07;31.93;91364.94;5014092;28;19913;-65
2022/07/13 09:54:07;;;;;;;;;;;;;;;28.13;31.73;91369.91;5013799;28;20402;-67
2022/07/13 09:56:33;;;;;;;;;;;;;;;26.86;32.62;91364.19;5013622;28;19952;-67
2022/07/13 09:59:04;;;;;;;;;;;;;;;29.40;30.40;91366.03;5013767;28;19986;-67
2022/07/13 10:01:30;;;;;;;;;;;;;;;31.71;28.47;91360.84;5013825;28;19962;-66
2022/07/13 10:03:56;;;;;;;;;;;;;;;31.20;28.33;91357.72;5013661;28;19947;-65
2022/07/13 10:06:21;;;;;;;;;;;;;;;32.42;28.53;91367.41;5013189;28;20379;-67
2022/07/13 10:08:47;;;;;;;;;;;;;;;33.42;26.95;91368.16;5013554;28;19920;-66
2022/07/13 10:11:13;;;;;;;;;;;;;;;32.09;28.20;91364.66;5012740;28;19968;-66
2022/07/13 10:13:38;;;;;;;;;;;;;;;32.05;26.86;91363.22;5013478;28;19959;-66
2022/07/13 10:16:04;;;;;;;;;;;;;;;32.53;28.73;91358.84;5013285;28;20294;-65
2022/07/13 10:18:30;;;;;;;;;;;;;;;32.36;27.60;91367.16;5012976;28;19933;-66
2022/07/13 10:21:14;;;;;;;;;;;;;;;32.67;27.09;91358.47;5013022;28;19917;-66
2022/07/13 10:23:40;;;;;;;;;;;;;;;32.23;28.02;91363.53;5013224;28;19920;-66
2022/07/13 10:26:28;;;;;;;;;;;;;;;30.75;28.17;91362.94;5013134;28;20306;-68
2022/07/13 10:29:21;;;;;;;;;;;;;;;31.49;27.76;91372.38;5013309;28;19996;-67
2022/07/13 10:31:57;;;;;;;;;;;;;;;31.62;26.70;91358.72;5010379;28;20384;-67
2022/07/13 10:34:43;;;;;;;;;;;;;;;32.45;28.48;91359.03;5012924;28;19920;-68
2022/07/13 10:37:10;;;;;;;;;;;;;;;32.05;27.96;91355.75;5012974;28;19918;-68
2022/07/13 10:39:35;;;;;;;;;;;;;;;29.91;30.62;91355.84;5012806;28;19940;-68
2022/07/13 10:42:02;;;;;;;;;;;;;;;29.04;32.85;91358.31;5013068;28;20244;-68
2022/07/13 10:44:32;;;;;;;;;;;;;;;31.25;30.26;91362.72;5013057;28;19914;-68
2022/07/13 10:46:57;;;;;;;;;;;;;;;32.51;28.27;91356.53;5013002;28;19920;-68
2022/07/13 10:49:48;;;;;;;;;;;;;;;32.98;27.81;91356.03;5012978;28;19989;-68
2022/07/13 10:52:26;;;;;;;;;;;;;;;33.22;26.68;91356.53;5013007;28;19920;-68
2022/07/13 10:55:03;;;;;;;;;;;;;;;30.95;29.97;91356.25;5012752;28;19913;-68
2022/07/13 10:57:29;;;;;;;;;;;;;;;30.40;30.34;91343.19;5012863;28;19929;-68
2022/07/13 10:59:59;;;;;;;;;;;;;;;27.73;33.65;91357.78;5012782;28;19914;-68
2022/07/13 11:02:44;;;;;;;;;;;;;;;26.19;35.72;91346.88;5012998;28;19917;-68
2022/07/13 11:05:10;;;;;;;;;;;;;;;24.18;36.83;91338.94;5012518;28;19917;-68
2022/07/13 11:07:42;;;;;;;;;;;;;;;25.88;37.85;91332.19;5012520;28;19918;-67
2022/07/13 11:10:18;;;;;;;;;;;;;;;28.46;33.13;91327.34;5012601;28;20315;-68
2022/07/13 11:13:02;;;;;;;;;;;;;;;28.84;32.43;91327.25;5012401;28;19914;-68
2022/07/13 11:15:42;;;;;;;;;;;;;;;27.30;32.78;91332.72;5012668;28;20344;-67
2022/07/13 11:18:28;;;;;;;;;;;;;;;30.24;30.25;91323.91;5012255;28;19996;-68
2022/07/13 11:21:03;;;;;;;;;;;;;;;31.83;29.06;91333.47;4994673;28;20306;-68
2022/07/13 11:27:06;;;;;;;;;;;;;;;31.86;30.21;91324.34;4951847;29;20018;-68
2022/07/13 11:29:43;;;;;;;;;;;;;;;30.16;29.83;91325.25;5002915;28;19920;-68
2022/07/13 11:32:09;;;;;;;;;;;;;;;27.82;33.59;91329.97;5011934;28;19964;-68
2022/07/13 11:34:35;;;;;;;;;;;;;;;26.79;34.46;91328.72;5012191;28;19928;-68
2022/07/13 11:37:01;;;;;;;;;;;;;;;26.56;35.91;91338.22;4994559;28;19917;-68
2022/07/13 11:39:28;;;;;;;;;;;;;;;26.38;35.92;91329.34;5012017;28;19918;-67
2022/07/13 11:41:54;;;;;;;;;;;;;;;25.93;35.94;91328.28;5012011;28;20362;-67
2022/07/13 11:44:40;;;;;;;;;;;;;;;25.36;36.75;91331.03;5012066;28;20005;-67
2022/07/13 11:47:09;;;;;;;;;;;;;;;24.82;39.02;91329.44;4993999;28;19917;-67
2022/07/13 11:49:47;;;;;;;;;;;;;;;26.42;36.89;91321.13;5011928;28;19920;-67
2022/07/13 11:52:24;;;;;;;;;;;;;;;25.92;36.39;91318.56;5011795;28;19914;-68
2022/07/13 11:54:56;;;;;;;;;;;;;;;25.88;36.35;91315.84;5011795;28;19913;-67
2022/07/13 11:57:22;;;;;;;;;;;;;;;28.43;35.04;91322.69;5012195;28;19921;-68
2022/07/13 11:59:47;;;;;;;;;;;;;;;29.77;32.09;91323.94;5011883;28;20315;-67
2022/07/13 12:02:14;;;;;;;;;;;;;;;29.30;32.35;91323.09;5011893;28;19935;-67
2022/07/13 12:04:45;;;;;;;;;;;;;;;30.14;31.00;91319.38;5011766;28;19924;-68
2022/07/13 12:07:21;;;;;;;;;;;;;;;30.62;31.33;91327.13;5011841;28;20398;-67
2022/07/13 12:09:46;;;;;;;;;;;;;;;31.96;29.40;91310.75;5011809;28;19968;-68
2022/07/13 12:12:11;;;;;;;;;;;;;;;28.85;31.28;91312.38;5011651;28;19917;-67
2022/07/13 12:14:37;;;;;;;;;;;;;;;29.10;32.66;91315.56;5011533;28;19960;-67
2022/07/13 12:17:02;;;;;;;;;;;;;;;28.30;32.78;91305.25;5011671;28;19913;-68
2022/07/13 12:19:28;;;;;;;;;;;;;;;27.93;34.05;91306.00;4993877;28;20355;-67
2022/07/13 12:21:57;;;;;;;;;;;;;;;29.16;32.50;91304.91;5011613;28;20367;-67
2022/07/13 12:24:22;;;;;;;;;;;;;;;28.66;31.72;91307.53;5011220;28;19919;-68
2022/07/13 12:26:52;;;;;;;;;;;;;;;29.78;31.18;91303.53;5011297;28;20003;-67
2022/07/13 12:29:30;;;;;;;;;;;;;;;32.31;29.92;91293.31;5011730;28;19952;-68
2022/07/13 12:31:56;;;;;;;;;;;;;;;31.45;30.14;91293.91;5011338;28;19917;-67
2022/07/13 12:34:21;;;;;;;;;;;;;;;30.95;29.66;91301.31;5012813;28;19914;-68
2022/07/13 12:36:50;;;;;;;;;;;;;;;31.20;29.74;91299.97;5032542;28;19917;-67
2022/07/13 12:39:19;;;;;;;;;;;;;;;28.01;33.01;91291.09;5048773;28;19928;-67
2022/07/13 12:41:54;;;;;;;;;;;;;;;26.61;34.68;91296.09;5033742;28;20016;-67
2022/07/13 12:44:25;;;;;;;;;;;;;;;25.76;35.98;91286.28;5053439;28;19920;-68
2022/07/13 12:46:54;;;;;;;;;;;;;;;24.73;37.46;91286.25;5037079;28;19925;-67
2022/07/13 12:49:25;;;;;;;;;;;;;;;23.87;39.96;91290.66;5034704;28;20007;-67
2022/07/13 12:51:52;;;;;;;;;;;;;;;23.19;39.48;91294.84;5033817;28;20403;-68
2022/07/13 12:54:37;;;;;;;;;;;;;;;23.18;39.51;91288.63;5029165;28;19917;-67
2022/07/13 12:57:07;;;;;;;;;;;;;;;24.46;36.82;91289.34;5038474;28;19917;-67